sensor_id;sensor_type;location;lat;lon;timestamp;P1;durP1;ratioP1;P2;durP2;ratioP2
12024;SDS011;6073;53.230;10.444;2023-01-19T00:01:18;8.52;;;6.93;;
12024;SDS011;6073;53.230;10.444;2023-01-19T00:03:43;10.63;;;7.53;;
12024;SDS011;6073;53.230;10.444;2023-01-19T00:06:09;10.00;;;7.88;;
12024;SDS011;6073;53.230;10.444;2023-01-19T00:08:36;10.82;;;7.40;;
12024;SDS011;6073;53.230;10.444;2023-01-19T00:11:02;10.98;;;7.90;;
12024;SDS011;6073;53.230;10.444;2023-01-19T00:13:27;13.02;;;7.57;;
12024;SDS011;6073;53.230;10.444;2023-01-19T00:15:53;9.73;;;6.97;;
12024;SDS011;6073;53.230;10.444;2023-01-19T00:18:19;14.82;;;7.57;;
12024;SDS011;6073;53.230;10.444;2023-01-19T00:20:45;10.95;;;6.85;;
12024;SDS011;6073;53.230;10.444;2023-01-19T00:23:11;10.38;;;7.07;;
12024;SDS011;6073;53.230;10.444;2023-01-19T00:25:37;13.20;;;7.35;;
12024;SDS011;6073;53.230;10.444;2023-01-19T00:28:10;10.32;;;7.20;;
12024;SDS011;6073;53.230;10.444;2023-01-19T00:30:36;12.57;;;7.85;;
12024;SDS011;6073;53.230;10.444;2023-01-19T00:33:02;11.93;;;7.15;;
12024;SDS011;6073;53.230;10.444;2023-01-19T00:35:28;11.57;;;7.05;;
12024;SDS011;6073;53.230;10.444;2023-01-19T00:37:54;8.63;;;6.10;;
12024;SDS011;6073;53.230;10.444;2023-01-19T00:40:21;12.25;;;6.55;;
12024;SDS011;6073;53.230;10.444;2023-01-19T00:42:47;12.68;;;7.13;;
12024;SDS011;6073;53.230;10.444;2023-01-19T00:45:16;10.85;;;6.90;;
12024;SDS011;6073;53.230;10.444;2023-01-19T00:47:43;12.82;;;7.00;;
12024;SDS011;6073;53.230;10.444;2023-01-19T00:50:10;12.77;;;7.68;;
12024;SDS011;6073;53.230;10.444;2023-01-19T00:52:39;10.70;;;7.28;;
12024;SDS011;6073;53.230;10.444;2023-01-19T00:55:06;10.15;;;6.55;;
12024;SDS011;6073;53.230;10.444;2023-01-19T00:57:32;9.45;;;6.80;;
12024;SDS011;6073;53.230;10.444;2023-01-19T00:59:58;15.57;;;7.38;;
12024;SDS011;6073;53.230;10.444;2023-01-19T01:02:24;9.60;;;6.80;;
12024;SDS011;6073;53.230;10.444;2023-01-19T01:04:49;9.63;;;6.82;;
12024;SDS011;6073;53.230;10.444;2023-01-19T01:07:19;12.43;;;7.30;;
12024;SDS011;6073;53.230;10.444;2023-01-19T01:09:45;10.48;;;6.82;;
12024;SDS011;6073;53.230;10.444;2023-01-19T01:12:11;12.23;;;6.75;;
12024;SDS011;6073;53.230;10.444;2023-01-19T01:14:36;10.07;;;6.38;;
12024;SDS011;6073;53.230;10.444;2023-01-19T01:17:02;11.07;;;6.82;;
12024;SDS011;6073;53.230;10.444;2023-01-19T01:19:27;13.82;;;6.60;;
12024;SDS011;6073;53.230;10.444;2023-01-19T01:21:53;11.43;;;6.72;;
12024;SDS011;6073;53.230;10.444;2023-01-19T01:24:19;10.48;;;6.70;;
12024;SDS011;6073;53.230;10.444;2023-01-19T01:26:45;9.85;;;6.70;;
12024;SDS011;6073;53.230;10.444;2023-01-19T01:29:11;7.32;;;6.00;;
12024;SDS011;6073;53.230;10.444;2023-01-19T01:31:36;10.63;;;6.70;;
12024;SDS011;6073;53.230;10.444;2023-01-19T01:34:03;12.23;;;7.35;;
12024;SDS011;6073;53.230;10.444;2023-01-19T01:36:28;12.07;;;7.00;;
12024;SDS011;6073;53.230;10.444;2023-01-19T01:38:57;10.73;;;6.05;;
12024;SDS011;6073;53.230;10.444;2023-01-19T01:41:23;12.10;;;6.85;;
12024;SDS011;6073;53.230;10.444;2023-01-19T01:43:51;10.23;;;6.43;;
12024;SDS011;6073;53.230;10.444;2023-01-19T01:46:20;10.30;;;6.70;;
12024;SDS011;6073;53.230;10.444;2023-01-19T01:51:43;11.60;;;7.00;;
12024;SDS011;6073;53.230;10.444;2023-01-19T01:54:28;12.43;;;7.15;;
12024;SDS011;6073;53.230;10.444;2023-01-19T01:56:56;10.57;;;7.28;;
12024;SDS011;6073;53.230;10.444;2023-01-19T01:59:26;12.02;;;6.68;;
12024;SDS011;6073;53.230;10.444;2023-01-19T02:02:22;8.52;;;6.30;;
12024;SDS011;6073;53.230;10.444;2023-01-19T02:05:11;12.57;;;7.20;;
12024;SDS011;6073;53.230;10.444;2023-01-19T02:07:49;9.75;;;6.45;;
12024;SDS011;6073;53.230;10.444;2023-01-19T02:10:54;10.70;;;7.00;;
12024;SDS011;6073;53.230;10.444;2023-01-19T02:13:39;11.20;;;6.60;;
12024;SDS011;6073;53.230;10.444;2023-01-19T02:16:09;8.70;;;6.50;;
12024;SDS011;6073;53.230;10.444;2023-01-19T02:18:36;8.82;;;6.70;;
12024;SDS011;6073;53.230;10.444;2023-01-19T02:23:43;8.00;;;6.68;;
12024;SDS011;6073;53.230;10.444;2023-01-19T02:26:20;8.52;;;5.82;;
12024;SDS011;6073;53.230;10.444;2023-01-19T02:28:51;9.30;;;6.78;;
12024;SDS011;6073;53.230;10.444;2023-01-19T02:31:33;10.90;;;6.47;;
12024;SDS011;6073;53.230;10.444;2023-01-19T02:34:01;8.88;;;6.70;;
12024;SDS011;6073;53.230;10.444;2023-01-19T02:36:36;10.27;;;6.80;;
12024;SDS011;6073;53.230;10.444;2023-01-19T02:39:04;9.45;;;6.50;;
12024;SDS011;6073;53.230;10.444;2023-01-19T02:41:33;12.55;;;6.95;;
12024;SDS011;6073;53.230;10.444;2023-01-19T02:44:10;10.15;;;6.57;;
12024;SDS011;6073;53.230;10.444;2023-01-19T02:46:38;10.55;;;7.25;;
12024;SDS011;6073;53.230;10.444;2023-01-19T02:49:04;12.38;;;6.60;;
12024;SDS011;6073;53.230;10.444;2023-01-19T02:51:30;9.38;;;6.13;;
12024;SDS011;6073;53.230;10.444;2023-01-19T02:56:47;11.50;;;6.97;;
12024;SDS011;6073;53.230;10.444;2023-01-19T03:07:41;9.65;;;6.43;;
12024;SDS011;6073;53.230;10.444;2023-01-19T03:12:56;10.88;;;6.32;;
12024;SDS011;6073;53.230;10.444;2023-01-19T03:15:25;11.90;;;6.45;;
12024;SDS011;6073;53.230;10.444;2023-01-19T03:18:02;10.55;;;6.55;;
12024;SDS011;6073;53.230;10.444;2023-01-19T03:20:32;7.63;;;5.82;;
12024;SDS011;6073;53.230;10.444;2023-01-19T03:22:59;9.75;;;6.65;;
12024;SDS011;6073;53.230;10.444;2023-01-19T03:25:29;8.35;;;6.40;;
12024;SDS011;6073;53.230;10.444;2023-01-19T03:27:59;8.48;;;6.60;;
12024;SDS011;6073;53.230;10.444;2023-01-19T03:30:27;10.00;;;6.25;;
12024;SDS011;6073;53.230;10.444;2023-01-19T03:32:59;9.85;;;6.72;;
12024;SDS011;6073;53.230;10.444;2023-01-19T03:35:32;8.52;;;6.25;;
12024;SDS011;6073;53.230;10.444;2023-01-19T03:38:01;8.63;;;6.18;;
12024;SDS011;6073;53.230;10.444;2023-01-19T03:40:32;8.63;;;6.00;;
12024;SDS011;6073;53.230;10.444;2023-01-19T03:43:00;10.75;;;6.93;;
12024;SDS011;6073;53.230;10.444;2023-01-19T03:45:30;10.98;;;6.53;;
12024;SDS011;6073;53.230;10.444;2023-01-19T03:47:57;10.75;;;6.32;;
12024;SDS011;6073;53.230;10.444;2023-01-19T03:50:28;10.63;;;6.13;;
12024;SDS011;6073;53.230;10.444;2023-01-19T03:55:46;8.70;;;6.55;;
12024;SDS011;6073;53.230;10.444;2023-01-19T03:58:19;9.38;;;6.18;;
12024;SDS011;6073;53.230;10.444;2023-01-19T04:01:07;9.88;;;6.75;;
12024;SDS011;6073;53.230;10.444;2023-01-19T04:03:42;8.48;;;6.45;;
12024;SDS011;6073;53.230;10.444;2023-01-19T04:06:13;9.35;;;5.95;;
12024;SDS011;6073;53.230;10.444;2023-01-19T04:08:39;8.48;;;6.45;;
12024;SDS011;6073;53.230;10.444;2023-01-19T04:11:07;8.85;;;6.00;;
12024;SDS011;6073;53.230;10.444;2023-01-19T04:13:33;8.63;;;6.28;;
12024;SDS011;6073;53.230;10.444;2023-01-19T04:16:02;9.63;;;6.63;;
12024;SDS011;6073;53.230;10.444;2023-01-19T04:18:39;10.23;;;6.80;;
12024;SDS011;6073;53.230;10.444;2023-01-19T04:21:15;9.32;;;6.97;;
12024;SDS011;6073;53.230;10.444;2023-01-19T04:23:40;11.75;;;6.70;;
12024;SDS011;6073;53.230;10.444;2023-01-19T04:26:08;9.57;;;6.38;;
12024;SDS011;6073;53.230;10.444;2023-01-19T04:28:34;10.15;;;7.10;;
12024;SDS011;6073;53.230;10.444;2023-01-19T04:31:01;8.90;;;6.40;;
12024;SDS011;6073;53.230;10.444;2023-01-19T04:33:33;10.57;;;6.53;;
12024;SDS011;6073;53.230;10.444;2023-01-19T04:35:59;9.35;;;6.47;;
12024;SDS011;6073;53.230;10.444;2023-01-19T04:38:28;9.38;;;6.53;;
12024;SDS011;6073;53.230;10.444;2023-01-19T04:40:56;8.85;;;6.15;;
12024;SDS011;6073;53.230;10.444;2023-01-19T04:43:22;11.00;;;6.25;;
12024;SDS011;6073;53.230;10.444;2023-01-19T04:45:48;7.75;;;5.55;;
12024;SDS011;6073;53.230;10.444;2023-01-19T04:48:13;10.57;;;6.32;;
12024;SDS011;6073;53.230;10.444;2023-01-19T04:50:42;10.32;;;6.75;;
12024;SDS011;6073;53.230;10.444;2023-01-19T04:53:08;9.52;;;6.78;;
12024;SDS011;6073;53.230;10.444;2023-01-19T04:55:35;10.45;;;6.90;;
12024;SDS011;6073;53.230;10.444;2023-01-19T04:58:05;8.05;;;6.05;;
12024;SDS011;6073;53.230;10.444;2023-01-19T05:00:32;8.95;;;6.50;;
12024;SDS011;6073;53.230;10.444;2023-01-19T05:03:06;10.80;;;6.88;;
12024;SDS011;6073;53.230;10.444;2023-01-19T05:05:39;9.57;;;7.20;;
12024;SDS011;6073;53.230;10.444;2023-01-19T05:08:26;8.70;;;6.70;;
12024;SDS011;6073;53.230;10.444;2023-01-19T05:10:51;10.75;;;6.40;;
12024;SDS011;6073;53.230;10.444;2023-01-19T05:13:16;10.32;;;7.15;;
12024;SDS011;6073;53.230;10.444;2023-01-19T05:15:42;8.88;;;6.22;;
12024;SDS011;6073;53.230;10.444;2023-01-19T05:18:08;10.43;;;7.05;;
12024;SDS011;6073;53.230;10.444;2023-01-19T05:20:33;8.52;;;6.60;;
12024;SDS011;6073;53.230;10.444;2023-01-19T05:22:59;10.27;;;6.88;;
12024;SDS011;6073;53.230;10.444;2023-01-19T05:25:31;8.90;;;6.20;;
12024;SDS011;6073;53.230;10.444;2023-01-19T05:27:56;10.00;;;6.90;;
12024;SDS011;6073;53.230;10.444;2023-01-19T05:30:24;9.98;;;6.32;;
12024;SDS011;6073;53.230;10.444;2023-01-19T05:32:50;8.48;;;6.43;;
12024;SDS011;6073;53.230;10.444;2023-01-19T05:35:15;11.63;;;6.65;;
12024;SDS011;6073;53.230;10.444;2023-01-19T05:37:41;10.63;;;6.55;;
12024;SDS011;6073;53.230;10.444;2023-01-19T05:40:08;8.73;;;6.97;;
12024;SDS011;6073;53.230;10.444;2023-01-19T05:42:43;11.23;;;6.75;;
12024;SDS011;6073;53.230;10.444;2023-01-19T05:45:08;9.73;;;7.28;;
12024;SDS011;6073;53.230;10.444;2023-01-19T05:47:35;11.65;;;6.95;;
12024;SDS011;6073;53.230;10.444;2023-01-19T05:50:01;11.38;;;6.50;;
12024;SDS011;6073;53.230;10.444;2023-01-19T05:52:33;8.13;;;6.25;;
12024;SDS011;6073;53.230;10.444;2023-01-19T05:54:58;8.55;;;6.70;;
12024;SDS011;6073;53.230;10.444;2023-01-19T05:57:24;10.75;;;6.95;;
12024;SDS011;6073;53.230;10.444;2023-01-19T05:59:49;9.30;;;6.50;;
12024;SDS011;6073;53.230;10.444;2023-01-19T06:02:18;10.00;;;7.10;;
12024;SDS011;6073;53.230;10.444;2023-01-19T06:04:52;8.18;;;6.57;;
12024;SDS011;6073;53.230;10.444;2023-01-19T06:07:21;9.98;;;6.68;;
12024;SDS011;6073;53.230;10.444;2023-01-19T06:09:47;9.43;;;6.82;;
12024;SDS011;6073;53.230;10.444;2023-01-19T06:12:12;9.68;;;6.75;;
12024;SDS011;6073;53.230;10.444;2023-01-19T06:14:38;10.43;;;7.03;;
12024;SDS011;6073;53.230;10.444;2023-01-19T06:17:04;9.88;;;7.05;;
12024;SDS011;6073;53.230;10.444;2023-01-19T06:19:31;9.15;;;7.20;;
12024;SDS011;6073;53.230;10.444;2023-01-19T06:21:57;10.75;;;7.35;;
12024;SDS011;6073;53.230;10.444;2023-01-19T06:24:26;10.35;;;6.78;;
12024;SDS011;6073;53.230;10.444;2023-01-19T06:26:52;10.25;;;7.22;;
12024;SDS011;6073;53.230;10.444;2023-01-19T06:29:21;12.98;;;7.57;;
12024;SDS011;6073;53.230;10.444;2023-01-19T06:31:47;10.15;;;7.20;;
12024;SDS011;6073;53.230;10.444;2023-01-19T06:34:12;11.68;;;7.50;;
12024;SDS011;6073;53.230;10.444;2023-01-19T06:36:41;12.05;;;7.47;;
12024;SDS011;6073;53.230;10.444;2023-01-19T06:42:01;11.98;;;7.40;;
12024;SDS011;6073;53.230;10.444;2023-01-19T06:44:27;10.52;;;7.38;;
12024;SDS011;6073;53.230;10.444;2023-01-19T06:46:53;9.95;;;7.13;;
12024;SDS011;6073;53.230;10.444;2023-01-19T06:49:18;12.90;;;7.90;;
12024;SDS011;6073;53.230;10.444;2023-01-19T06:51:44;9.88;;;7.43;;
12024;SDS011;6073;53.230;10.444;2023-01-19T06:54:10;13.73;;;8.40;;
12024;SDS011;6073;53.230;10.444;2023-01-19T06:56:37;11.95;;;7.85;;
12024;SDS011;6073;53.230;10.444;2023-01-19T06:59:10;9.18;;;6.82;;
12024;SDS011;6073;53.230;10.444;2023-01-19T07:01:42;9.10;;;7.25;;
12024;SDS011;6073;53.230;10.444;2023-01-19T07:04:07;9.77;;;7.47;;
12024;SDS011;6073;53.230;10.444;2023-01-19T07:06:37;13.20;;;8.48;;
12024;SDS011;6073;53.230;10.444;2023-01-19T07:09:06;10.38;;;7.50;;
12024;SDS011;6073;53.230;10.444;2023-01-19T07:11:34;11.43;;;7.20;;
12024;SDS011;6073;53.230;10.444;2023-01-19T07:14:00;11.43;;;8.02;;
12024;SDS011;6073;53.230;10.444;2023-01-19T07:16:27;11.18;;;7.45;;
12024;SDS011;6073;53.230;10.444;2023-01-19T07:18:53;10.00;;;7.30;;
12024;SDS011;6073;53.230;10.444;2023-01-19T07:21:18;10.80;;;7.82;;
12024;SDS011;6073;53.230;10.444;2023-01-19T07:23:46;12.80;;;8.13;;
12024;SDS011;6073;53.230;10.444;2023-01-19T07:26:12;12.68;;;8.90;;
12024;SDS011;6073;53.230;10.444;2023-01-19T07:28:39;11.95;;;8.20;;
12024;SDS011;6073;53.230;10.444;2023-01-19T07:31:05;10.20;;;7.80;;
12024;SDS011;6073;53.230;10.444;2023-01-19T07:33:31;13.95;;;8.43;;
12024;SDS011;6073;53.230;10.444;2023-01-19T07:35:57;13.05;;;8.45;;
12024;SDS011;6073;53.230;10.444;2023-01-19T07:38:22;12.07;;;8.23;;
12024;SDS011;6073;53.230;10.444;2023-01-19T07:40:48;10.65;;;7.38;;
12024;SDS011;6073;53.230;10.444;2023-01-19T07:43:14;12.27;;;8.85;;
12024;SDS011;6073;53.230;10.444;2023-01-19T07:45:40;14.30;;;7.38;;
12024;SDS011;6073;53.230;10.444;2023-01-19T07:48:05;13.82;;;8.40;;
12024;SDS011;6073;53.230;10.444;2023-01-19T07:50:31;12.60;;;9.00;;
12024;SDS011;6073;53.230;10.444;2023-01-19T07:53:01;12.73;;;8.23;;
12024;SDS011;6073;53.230;10.444;2023-01-19T07:55:32;11.85;;;8.00;;
12024;SDS011;6073;53.230;10.444;2023-01-19T07:57:57;12.80;;;7.95;;
12024;SDS011;6073;53.230;10.444;2023-01-19T08:00:23;12.80;;;8.88;;
12024;SDS011;6073;53.230;10.444;2023-01-19T08:02:52;14.38;;;8.65;;
12024;SDS011;6073;53.230;10.444;2023-01-19T08:05:24;13.15;;;8.70;;
12024;SDS011;6073;53.230;10.444;2023-01-19T08:07:49;13.63;;;8.18;;
12024;SDS011;6073;53.230;10.444;2023-01-19T08:10:15;11.68;;;8.30;;
12024;SDS011;6073;53.230;10.444;2023-01-19T08:12:41;12.10;;;7.90;;
12024;SDS011;6073;53.230;10.444;2023-01-19T08:15:07;11.70;;;7.95;;
12024;SDS011;6073;53.230;10.444;2023-01-19T08:17:34;12.90;;;7.60;;
12024;SDS011;6073;53.230;10.444;2023-01-19T08:20:00;13.77;;;8.13;;
12024;SDS011;6073;53.230;10.444;2023-01-19T08:22:26;12.95;;;8.02;;
12024;SDS011;6073;53.230;10.444;2023-01-19T08:24:51;17.70;;;8.27;;
12024;SDS011;6073;53.230;10.444;2023-01-19T08:27:18;11.52;;;8.10;;
12024;SDS011;6073;53.230;10.444;2023-01-19T08:29:44;12.35;;;7.63;;
12024;SDS011;6073;53.230;10.444;2023-01-19T08:32:10;11.57;;;7.75;;
12024;SDS011;6073;53.230;10.444;2023-01-19T08:34:35;12.63;;;8.13;;
12024;SDS011;6073;53.230;10.444;2023-01-19T08:37:01;12.07;;;7.32;;
12024;SDS011;6073;53.230;10.444;2023-01-19T08:39:26;9.70;;;6.93;;
12024;SDS011;6073;53.230;10.444;2023-01-19T08:41:52;13.20;;;7.60;;
12024;SDS011;6073;53.230;10.444;2023-01-19T08:44:17;11.57;;;7.85;;
12024;SDS011;6073;53.230;10.444;2023-01-19T08:46:43;11.80;;;7.70;;
12024;SDS011;6073;53.230;10.444;2023-01-19T08:49:09;9.15;;;7.30;;
12024;SDS011;6073;53.230;10.444;2023-01-19T08:51:34;9.98;;;7.45;;
12024;SDS011;6073;53.230;10.444;2023-01-19T08:54:00;9.57;;;7.20;;
12024;SDS011;6073;53.230;10.444;2023-01-19T08:56:26;10.38;;;7.43;;
12024;SDS011;6073;53.230;10.444;2023-01-19T08:58:52;8.45;;;6.85;;
12024;SDS011;6073;53.230;10.444;2023-01-19T09:01:18;9.10;;;6.80;;
12024;SDS011;6073;53.230;10.444;2023-01-19T09:03:46;9.18;;;6.63;;
12024;SDS011;6073;53.230;10.444;2023-01-19T09:06:12;11.18;;;6.85;;
12024;SDS011;6073;53.230;10.444;2023-01-19T09:08:41;8.85;;;6.55;;
12024;SDS011;6073;53.230;10.444;2023-01-19T09:11:10;9.52;;;6.38;;
12024;SDS011;6073;53.230;10.444;2023-01-19T09:13:37;8.52;;;6.35;;
12024;SDS011;6073;53.230;10.444;2023-01-19T09:16:04;11.77;;;6.80;;
12024;SDS011;6073;53.230;10.444;2023-01-19T09:18:33;8.25;;;5.78;;
12024;SDS011;6073;53.230;10.444;2023-01-19T09:20:59;8.52;;;5.82;;
12024;SDS011;6073;53.230;10.444;2023-01-19T09:23:25;22.88;;;6.82;;
12024;SDS011;6073;53.230;10.444;2023-01-19T09:25:55;8.90;;;6.07;;
12024;SDS011;6073;53.230;10.444;2023-01-19T09:28:22;8.07;;;6.50;;
12024;SDS011;6073;53.230;10.444;2023-01-19T09:30:48;9.13;;;6.10;;
12024;SDS011;6073;53.230;10.444;2023-01-19T09:33:14;8.10;;;6.00;;
12024;SDS011;6073;53.230;10.444;2023-01-19T09:35:41;8.60;;;6.32;;
12024;SDS011;6073;53.230;10.444;2023-01-19T09:38:07;8.70;;;5.82;;
12024;SDS011;6073;53.230;10.444;2023-01-19T09:40:35;8.38;;;6.00;;
12024;SDS011;6073;53.230;10.444;2023-01-19T09:50:56;15.90;;;9.50;;
12024;SDS011;6073;53.230;10.444;2023-01-19T09:56:38;6.63;;;5.93;;
12024;SDS011;6073;53.230;10.444;2023-01-19T09:59:37;8.77;;;6.40;;
12024;SDS011;6073;53.230;10.444;2023-01-19T10:07:25;7.13;;;5.80;;
12024;SDS011;6073;53.230;10.444;2023-01-19T10:10:04;6.68;;;4.90;;
12024;SDS011;6073;53.230;10.444;2023-01-19T10:15:44;9.27;;;5.90;;
12024;SDS011;6073;53.230;10.444;2023-01-19T10:18:23;7.38;;;5.28;;
12024;SDS011;6073;53.230;10.444;2023-01-19T10:20:59;8.55;;;5.90;;
12024;SDS011;6073;53.230;10.444;2023-01-19T10:23:34;9.60;;;6.15;;
12024;SDS011;6073;53.230;10.444;2023-01-19T10:26:02;9.77;;;5.15;;
12024;SDS011;6073;53.230;10.444;2023-01-19T10:28:37;9.43;;;4.97;;
12024;SDS011;6073;53.230;10.444;2023-01-19T10:31:03;7.45;;;5.53;;
12024;SDS011;6073;53.230;10.444;2023-01-19T10:33:31;8.52;;;5.30;;
12024;SDS011;6073;53.230;10.444;2023-01-19T10:35:58;6.07;;;5.28;;
12024;SDS011;6073;53.230;10.444;2023-01-19T10:38:26;8.30;;;5.18;;
12024;SDS011;6073;53.230;10.444;2023-01-19T10:40:56;10.15;;;5.70;;
12024;SDS011;6073;53.230;10.444;2023-01-19T10:43:35;6.53;;;4.93;;
12024;SDS011;6073;53.230;10.444;2023-01-19T10:46:13;6.82;;;5.47;;
12024;SDS011;6073;53.230;10.444;2023-01-19T10:48:43;5.22;;;4.72;;
12024;SDS011;6073;53.230;10.444;2023-01-19T10:51:11;9.05;;;5.22;;
12024;SDS011;6073;53.230;10.444;2023-01-19T10:53:37;6.18;;;4.88;;
12024;SDS011;6073;53.230;10.444;2023-01-19T10:56:10;5.93;;;5.00;;
12024;SDS011;6073;53.230;10.444;2023-01-19T10:58:41;6.28;;;5.45;;
12024;SDS011;6073;53.230;10.444;2023-01-19T11:01:25;8.35;;;5.57;;
12024;SDS011;6073;53.230;10.444;2023-01-19T11:03:53;6.20;;;5.25;;
12024;SDS011;6073;53.230;10.444;2023-01-19T11:08:47;6.13;;;5.15;;
12024;SDS011;6073;53.230;10.444;2023-01-19T11:11:16;6.18;;;5.05;;
12024;SDS011;6073;53.230;10.444;2023-01-19T11:13:43;6.93;;;5.35;;
12024;SDS011;6073;53.230;10.444;2023-01-19T11:18:51;5.97;;;4.88;;
12024;SDS011;6073;53.230;10.444;2023-01-19T11:21:20;6.07;;;4.80;;
12024;SDS011;6073;53.230;10.444;2023-01-19T11:23:49;5.68;;;4.43;;
12024;SDS011;6073;53.230;10.444;2023-01-19T11:26:24;6.07;;;4.57;;
12024;SDS011;6073;53.230;10.444;2023-01-19T11:28:54;5.75;;;4.93;;
12024;SDS011;6073;53.230;10.444;2023-01-19T11:34:00;7.28;;;4.80;;
12024;SDS011;6073;53.230;10.444;2023-01-19T11:36:32;5.32;;;4.50;;
12024;SDS011;6073;53.230;10.444;2023-01-19T11:39:01;5.95;;;4.78;;
12024;SDS011;6073;53.230;10.444;2023-01-19T11:41:48;5.50;;;4.55;;
12024;SDS011;6073;53.230;10.444;2023-01-19T11:44:20;7.03;;;5.07;;
12024;SDS011;6073;53.230;10.444;2023-01-19T11:46:53;5.38;;;4.68;;
12024;SDS011;6073;53.230;10.444;2023-01-19T11:49:43;8.05;;;5.45;;
12024;SDS011;6073;53.230;10.444;2023-01-19T11:52:31;6.63;;;4.90;;
12024;SDS011;6073;53.230;10.444;2023-01-19T11:55:46;4.43;;;4.00;;
12024;SDS011;6073;53.230;10.444;2023-01-19T11:58:16;5.03;;;4.50;;
12024;SDS011;6073;53.230;10.444;2023-01-19T12:00:44;4.95;;;4.45;;
12024;SDS011;6073;53.230;10.444;2023-01-19T12:03:36;5.97;;;4.82;;
12024;SDS011;6073;53.230;10.444;2023-01-19T12:06:05;7.25;;;3.97;;
12024;SDS011;6073;53.230;10.444;2023-01-19T12:11:13;5.13;;;4.60;;
12024;SDS011;6073;53.230;10.444;2023-01-19T12:13:44;4.57;;;4.18;;
12024;SDS011;6073;53.230;10.444;2023-01-19T12:16:12;5.00;;;4.50;;
12024;SDS011;6073;53.230;10.444;2023-01-19T12:18:47;5.22;;;4.50;;
12024;SDS011;6073;53.230;10.444;2023-01-19T12:21:22;6.97;;;5.55;;
12024;SDS011;6073;53.230;10.444;2023-01-19T12:26:31;6.57;;;5.18;;
12024;SDS011;6073;53.230;10.444;2023-01-19T12:29:06;6.07;;;4.95;;
12024;SDS011;6073;53.230;10.444;2023-01-19T12:31:36;5.53;;;4.85;;
12024;SDS011;6073;53.230;10.444;2023-01-19T12:37:26;5.47;;;4.68;;
12024;SDS011;6073;53.230;10.444;2023-01-19T12:39:58;5.85;;;5.28;;
12024;SDS011;6073;53.230;10.444;2023-01-19T12:42:27;6.65;;;5.43;;
12024;SDS011;6073;53.230;10.444;2023-01-19T12:47:46;7.88;;;5.95;;
12024;SDS011;6073;53.230;10.444;2023-01-19T12:50:16;8.68;;;6.13;;
12024;SDS011;6073;53.230;10.444;2023-01-19T12:52:54;7.13;;;5.70;;
12024;SDS011;6073;53.230;10.444;2023-01-19T12:55:26;7.80;;;6.18;;
12024;SDS011;6073;53.230;10.444;2023-01-19T12:58:01;6.93;;;5.72;;
12024;SDS011;6073;53.230;10.444;2023-01-19T13:00:33;5.90;;;5.30;;
12024;SDS011;6073;53.230;10.444;2023-01-19T13:03:02;7.85;;;6.05;;
12024;SDS011;6073;53.230;10.444;2023-01-19T13:13:19;9.52;;;6.70;;
12024;SDS011;6073;53.230;10.444;2023-01-19T13:15:47;8.55;;;5.70;;
12024;SDS011;6073;53.230;10.444;2023-01-19T13:18:16;9.45;;;6.40;;
12024;SDS011;6073;53.230;10.444;2023-01-19T13:20:49;7.47;;;5.78;;
12024;SDS011;6073;53.230;10.444;2023-01-19T13:24:05;9.45;;;6.50;;
12024;SDS011;6073;53.230;10.444;2023-01-19T13:26:12;9.13;;;6.00;;
12024;SDS011;6073;53.230;10.444;2023-01-19T13:28:40;8.98;;;6.25;;
12024;SDS011;6073;53.230;10.444;2023-01-19T13:31:07;7.18;;;6.00;;
12024;SDS011;6073;53.230;10.444;2023-01-19T13:33:53;6.55;;;5.55;;
12024;SDS011;6073;53.230;10.444;2023-01-19T13:36:33;7.43;;;6.00;;
12024;SDS011;6073;53.230;10.444;2023-01-19T13:39:44;8.60;;;6.03;;
12024;SDS011;6073;53.230;10.444;2023-01-19T13:42:01;8.45;;;5.70;;
12024;SDS011;6073;53.230;10.444;2023-01-19T13:44:31;9.38;;;6.80;;
12024;SDS011;6073;53.230;10.444;2023-01-19T13:47:06;8.52;;;6.00;;
12024;SDS011;6073;53.230;10.444;2023-01-19T13:49:35;8.27;;;6.55;;
12024;SDS011;6073;53.230;10.444;2023-01-19T13:54:54;8.30;;;6.32;;
12024;SDS011;6073;53.230;10.444;2023-01-19T14:05:14;9.07;;;6.60;;
12024;SDS011;6073;53.230;10.444;2023-01-19T14:08:01;8.95;;;6.82;;
12024;SDS011;6073;53.230;10.444;2023-01-19T14:10:59;7.82;;;6.60;;
12024;SDS011;6073;53.230;10.444;2023-01-19T14:13:26;9.07;;;6.45;;
12024;SDS011;6073;53.230;10.444;2023-01-19T14:15:57;8.43;;;6.60;;
12024;SDS011;6073;53.230;10.444;2023-01-19T14:18:26;8.75;;;7.00;;
12024;SDS011;6073;53.230;10.444;2023-01-19T14:21:04;8.23;;;7.10;;
12024;SDS011;6073;53.230;10.444;2023-01-19T14:23:48;8.30;;;7.32;;
12024;SDS011;6073;53.230;10.444;2023-01-19T14:29:27;10.02;;;7.00;;
12024;SDS011;6073;53.230;10.444;2023-01-19T14:37:16;9.27;;;6.63;;
12024;SDS011;6073;53.230;10.444;2023-01-19T14:39:52;9.35;;;6.57;;
12024;SDS011;6073;53.230;10.444;2023-01-19T14:44:53;11.02;;;7.03;;
12024;SDS011;6073;53.230;10.444;2023-01-19T14:48:20;12.60;;;7.47;;
12024;SDS011;6073;53.230;10.444;2023-01-19T14:50:23;9.35;;;6.80;;
12024;SDS011;6073;53.230;10.444;2023-01-19T14:52:53;8.48;;;6.05;;
12024;SDS011;6073;53.230;10.444;2023-01-19T14:58:10;9.38;;;6.63;;
12024;SDS011;6073;53.230;10.444;2023-01-19T15:00:38;12.07;;;7.60;;
12024;SDS011;6073;53.230;10.444;2023-01-19T15:03:04;10.32;;;7.95;;
12024;SDS011;6073;53.230;10.444;2023-01-19T15:05:30;11.65;;;7.50;;
12024;SDS011;6073;53.230;10.444;2023-01-19T15:07:56;10.65;;;7.22;;
12024;SDS011;6073;53.230;10.444;2023-01-19T15:10:22;9.77;;;7.50;;
12024;SDS011;6073;53.230;10.444;2023-01-19T15:12:50;10.40;;;7.47;;
12024;SDS011;6073;53.230;10.444;2023-01-19T15:15:29;9.20;;;7.53;;
12024;SDS011;6073;53.230;10.444;2023-01-19T15:17:56;10.82;;;7.60;;
12024;SDS011;6073;53.230;10.444;2023-01-19T15:20:27;10.55;;;7.28;;
12024;SDS011;6073;53.230;10.444;2023-01-19T15:22:52;10.50;;;7.28;;
12024;SDS011;6073;53.230;10.444;2023-01-19T15:25:19;11.73;;;7.72;;
12024;SDS011;6073;53.230;10.444;2023-01-19T15:27:46;11.40;;;7.18;;
12024;SDS011;6073;53.230;10.444;2023-01-19T15:30:19;9.35;;;7.70;;
12024;SDS011;6073;53.230;10.444;2023-01-19T15:32:47;9.85;;;7.70;;
12024;SDS011;6073;53.230;10.444;2023-01-19T15:35:17;9.57;;;7.40;;
12024;SDS011;6073;53.230;10.444;2023-01-19T15:37:44;10.18;;;7.50;;
12024;SDS011;6073;53.230;10.444;2023-01-19T15:40:10;12.23;;;8.00;;
12024;SDS011;6073;53.230;10.444;2023-01-19T15:42:36;9.88;;;7.88;;
12024;SDS011;6073;53.230;10.444;2023-01-19T15:45:10;11.30;;;7.88;;
12024;SDS011;6073;53.230;10.444;2023-01-19T15:47:45;12.02;;;8.13;;
12024;SDS011;6073;53.230;10.444;2023-01-19T15:50:10;12.63;;;9.20;;
12024;SDS011;6073;53.230;10.444;2023-01-19T15:52:36;8.85;;;7.68;;
12024;SDS011;6073;53.230;10.444;2023-01-19T15:55:01;11.43;;;8.10;;
12024;SDS011;6073;53.230;10.444;2023-01-19T15:57:27;10.82;;;8.38;;
12024;SDS011;6073;53.230;10.444;2023-01-19T15:59:52;12.52;;;8.35;;
12024;SDS011;6073;53.230;10.444;2023-01-19T16:02:18;12.35;;;8.00;;
12024;SDS011;6073;53.230;10.444;2023-01-19T16:04:47;12.48;;;8.27;;
12024;SDS011;6073;53.230;10.444;2023-01-19T16:07:12;13.43;;;8.82;;
12024;SDS011;6073;53.230;10.444;2023-01-19T16:09:38;11.70;;;8.60;;
12024;SDS011;6073;53.230;10.444;2023-01-19T16:12:04;10.77;;;8.63;;
12024;SDS011;6073;53.230;10.444;2023-01-19T16:14:30;13.02;;;8.48;;
12024;SDS011;6073;53.230;10.444;2023-01-19T16:16:55;11.77;;;8.07;;
12024;SDS011;6073;53.230;10.444;2023-01-19T16:19:24;16.85;;;9.10;;
12024;SDS011;6073;53.230;10.444;2023-01-19T16:21:49;11.93;;;7.68;;
12024;SDS011;6073;53.230;10.444;2023-01-19T16:24:15;12.93;;;8.48;;
12024;SDS011;6073;53.230;10.444;2023-01-19T16:26:42;12.85;;;9.02;;
12024;SDS011;6073;53.230;10.444;2023-01-19T16:29:07;13.27;;;8.73;;
12024;SDS011;6073;53.230;10.444;2023-01-19T16:31:38;13.80;;;8.98;;